Time;durP1;ratioP1;P1;durP2;ratioP2;P2;SDS_P1;SDS_P2;PMS_P1;PMS_P2;Temp;Humidity;BMP_temperature;BMP_pressure;BME280_temperature;BME280_humidity;BME280_pressure;Samples;Min_cycle;Max_cycle;Signal;HPM_P1;HPM_P2
2022/03/18 00:02:13;;;;;;;29.57;12.57;;;;;;;;;;5080650;28;20085;-69
2022/03/18 00:04:38;;;;;;;29.20;10.57;;;;;;;;;;5090252;28;20047;-69
2022/03/18 00:07:03;;;;;;;35.80;11.57;;;;;;;;;;5099223;28;20045;-69
2022/03/18 00:09:33;;;;;;;30.97;11.77;;;;;;;;;;5093958;28;20044;-69
2022/03/18 00:11:58;;;;;;;31.47;11.10;;;;;;;;;;5102326;28;20030;-69
2022/03/18 00:14:24;;;;;;;26.20;11.13;;;;;;;;;;5100149;28;20019;-69
2022/03/18 00:16:49;;;;;;;29.87;11.40;;;;;;;;;;5102214;28;20050;-69
2022/03/18 00:19:14;;;;;;;33.47;12.03;;;;;;;;;;5101003;28;20723;-69
2022/03/18 00:21:40;;;;;;;29.23;11.83;;;;;;;;;;5103224;28;20031;-69
2022/03/18 00:24:05;;;;;;;37.47;12.17;;;;;;;;;;5103417;28;20072;-69
2022/03/18 00:26:30;;;;;;;31.97;12.90;;;;;;;;;;5097171;28;20035;-69
2022/03/18 00:28:56;;;;;;;39.47;11.87;;;;;;;;;;5096784;28;20042;-69
2022/03/18 00:31:21;;;;;;;39.57;12.50;;;;;;;;;;5103267;28;20031;-69
2022/03/18 00:33:46;;;;;;;34.90;12.63;;;;;;;;;;5103852;28;20023;-69
2022/03/18 00:36:11;;;;;;;29.20;12.73;;;;;;;;;;5098765;28;20098;-69
2022/03/18 00:38:37;;;;;;;34.73;12.93;;;;;;;;;;5104538;28;20393;-68
2022/03/18 00:41:02;;;;;;;34.63;14.07;;;;;;;;;;5095736;28;20028;-69
2022/03/18 00:43:27;;;;;;;33.33;14.53;;;;;;;;;;5099412;28;20034;-69
2022/03/18 00:45:53;;;;;;;37.33;13.83;;;;;;;;;;5090682;28;20024;-69
2022/03/18 00:53:46;;;;;;;37.10;13.73;;;;;;;;;;5097139;28;20290;-69
2022/03/18 00:56:11;;;;;;;36.73;14.23;;;;;;;;;;5099872;28;20036;-69
2022/03/18 00:58:37;;;;;;;40.03;13.27;;;;;;;;;;5103631;28;20023;-69
2022/03/18 01:01:02;;;;;;;40.50;14.00;;;;;;;;;;5102672;28;20088;-69
2022/03/18 01:03:27;;;;;;;28.83;13.27;;;;;;;;;;5103038;28;20037;-69
2022/03/18 01:05:53;;;;;;;39.13;15.40;;;;;;;;;;5100715;28;20065;-69
2022/03/18 01:08:18;;;;;;;50.17;16.63;;;;;;;;;;5102703;28;20636;-69
2022/03/18 01:10:44;;;;;;;45.17;15.87;;;;;;;;;;5102618;28;20035;-69
2022/03/18 01:13:09;;;;;;;42.67;15.13;;;;;;;;;;5103077;28;20027;-69
2022/03/18 01:15:35;;;;;;;51.93;18.50;;;;;;;;;;5095630;28;20093;-69
2022/03/18 01:18:00;;;;;;;45.43;16.90;;;;;;;;;;5095135;28;20045;-69
2022/03/18 01:20:25;;;;;;;41.17;14.97;;;;;;;;;;5097313;28;20030;-69
2022/03/18 01:22:51;;;;;;;46.73;17.60;;;;;;;;;;5101689;28;20236;-69
2022/03/18 01:25:16;;;;;;;42.57;16.80;;;;;;;;;;5102684;28;20024;-69
2022/03/18 01:27:42;;;;;;;50.57;17.17;;;;;;;;;;5103176;28;20024;-69
2022/03/18 01:30:08;;;;;;;54.57;17.87;;;;;;;;;;5095545;28;20468;-69
2022/03/18 01:32:33;;;;;;;45.20;17.83;;;;;;;;;;5091952;28;20020;-69
2022/03/18 01:34:59;;;;;;;46.23;18.13;;;;;;;;;;5095409;28;20281;-69
2022/03/18 01:37:25;;;;;;;41.53;18.30;;;;;;;;;;5102489;28;20058;-69
2022/03/18 01:39:50;;;;;;;56.80;20.23;;;;;;;;;;5098530;28;20115;-69
2022/03/18 01:42:15;;;;;;;50.37;19.50;;;;;;;;;;5092060;28;20107;-69
2022/03/18 01:44:41;;;;;;;59.10;23.07;;;;;;;;;;5090009;28;20019;-69
2022/03/18 01:47:07;;;;;;;58.77;23.53;;;;;;;;;;5102273;28;20708;-69
2022/03/18 01:49:33;;;;;;;60.07;23.77;;;;;;;;;;5098899;28;20276;-69
2022/03/18 01:51:58;;;;;;;55.87;22.90;;;;;;;;;;5102183;28;20426;-69
2022/03/18 01:57:08;;;;;;;47.80;22.03;;;;;;;;;;5085908;28;20065;-69
2022/03/18 01:59:33;;;;;;;54.27;22.00;;;;;;;;;;5101132;28;20353;-69
2022/03/18 02:01:58;;;;;;;52.57;22.23;;;;;;;;;;5075642;22;20623;-68
2022/03/18 02:04:24;;;;;;;61.53;22.57;;;;;;;;;;5052485;28;20032;-68
2022/03/18 02:06:50;;;;;;;48.43;21.07;;;;;;;;;;5061992;28;20025;-68
2022/03/18 02:09:15;;;;;;;54.77;22.37;;;;;;;;;;5060564;28;20024;-68
2022/03/18 02:11:41;;;;;;;55.80;21.97;;;;;;;;;;5061632;28;20031;-68
2022/03/18 02:14:06;;;;;;;58.20;22.47;;;;;;;;;;5061830;28;20035;-68
2022/03/18 02:16:31;;;;;;;48.57;21.37;;;;;;;;;;5061599;28;20028;-68
2022/03/18 02:18:56;;;;;;;53.40;21.30;;;;;;;;;;5061127;28;20511;-68
2022/03/18 02:21:22;;;;;;;55.37;23.03;;;;;;;;;;5061201;28;20032;-68
2022/03/18 02:23:48;;;;;;;57.60;24.93;;;;;;;;;;5061389;28;20031;-68
2022/03/18 02:26:15;;;;;;;50.27;23.63;;;;;;;;;;5061173;28;20024;-68
2022/03/18 02:28:41;;;;;;;50.77;21.60;;;;;;;;;;5061424;28;20020;-68
2022/03/18 02:31:06;;;;;;;50.80;21.80;;;;;;;;;;5060686;28;20263;-68
2022/03/18 02:33:31;;;;;;;56.00;22.77;;;;;;;;;;5061075;28;20059;-68
2022/03/18 02:35:56;;;;;;;56.87;23.83;;;;;;;;;;5060425;28;20039;-68
2022/03/18 02:38:23;;;;;;;63.60;24.43;;;;;;;;;;5062879;28;20020;-68
2022/03/18 02:40:48;;;;;;;65.60;26.00;;;;;;;;;;5060996;28;20036;-68
2022/03/18 02:43:13;;;;;;;56.80;23.30;;;;;;;;;;5061152;28;21230;-68
2022/03/18 02:45:38;;;;;;;70.20;26.90;;;;;;;;;;5065618;28;20028;-68
2022/03/18 02:48:04;;;;;;;63.97;25.93;;;;;;;;;;5059647;28;20427;-68
2022/03/18 02:50:29;;;;;;;60.37;24.97;;;;;;;;;;5059998;28;20033;-68
2022/03/18 02:52:54;;;;;;;58.30;24.20;;;;;;;;;;5061079;28;20478;-68
2022/03/18 02:55:21;;;;;;;51.20;23.20;;;;;;;;;;5061588;28;20469;-68
2022/03/18 02:57:46;;;;;;;50.43;22.80;;;;;;;;;;5060243;28;20033;-68
2022/03/18 03:00:12;;;;;;;54.30;22.70;;;;;;;;;;5060816;28;20278;-68
2022/03/18 03:02:37;;;;;;;51.07;21.47;;;;;;;;;;5060597;28;20117;-68
2022/03/18 03:07:59;;;;;;;46.30;20.30;;;;;;;;;;5058414;28;20031;-68
2022/03/18 03:10:24;;;;;;;48.13;20.30;;;;;;;;;;5060639;28;20267;-68
2022/03/18 03:12:50;;;;;;;55.33;20.97;;;;;;;;;;5059355;28;20082;-68
2022/03/18 03:15:15;;;;;;;50.90;19.93;;;;;;;;;;5060784;28;20026;-68
2022/03/18 03:17:40;;;;;;;56.00;23.53;;;;;;;;;;5060799;28;20416;-68
2022/03/18 03:20:08;;;;;;;62.13;24.70;;;;;;;;;;5060477;28;20052;-68
2022/03/18 03:22:34;;;;;;;50.77;22.47;;;;;;;;;;5070862;28;20020;-68
2022/03/18 03:24:59;;;;;;;53.63;20.33;;;;;;;;;;5060612;28;20267;-68
2022/03/18 03:27:31;;;;;;;54.67;20.93;;;;;;;;;;5060494;28;20025;-68
2022/03/18 03:30:00;;;;;;;60.83;22.58;;;;;;;;;;5061042;28;20066;-68
2022/03/18 03:32:25;;;;;;;48.97;21.93;;;;;;;;;;5060510;28;20461;-68
2022/03/18 03:34:50;;;;;;;68.47;24.63;;;;;;;;;;5060503;28;20274;-68
2022/03/18 03:37:16;;;;;;;75.27;32.50;;;;;;;;;;5061483;28;20100;-67
2022/03/18 03:39:41;;;;;;;71.17;32.23;;;;;;;;;;5060389;28;20066;-68
2022/03/18 03:42:06;;;;;;;80.53;33.97;;;;;;;;;;5061073;28;20118;-70
2022/03/18 03:44:32;;;;;;;76.83;35.57;;;;;;;;;;5060574;28;20016;-70
2022/03/18 03:46:57;;;;;;;81.27;35.90;;;;;;;;;;5064507;28;20032;-71
2022/03/18 03:49:22;;;;;;;77.73;34.33;;;;;;;;;;5064658;28;20078;-70
2022/03/18 03:51:48;;;;;;;71.27;33.20;;;;;;;;;;5063000;28;20017;-70
2022/03/18 03:54:13;;;;;;;82.23;34.63;;;;;;;;;;5064244;28;20025;-70
2022/03/18 03:56:38;;;;;;;75.63;33.00;;;;;;;;;;5063975;28;20024;-70
2022/03/18 03:59:03;;;;;;;78.57;34.73;;;;;;;;;;5063628;28;20047;-70
2022/03/18 04:01:29;;;;;;;75.20;33.53;;;;;;;;;;5063966;28;20051;-70
2022/03/18 04:03:54;;;;;;;76.60;34.87;;;;;;;;;;5063752;28;20082;-70
2022/03/18 04:06:20;;;;;;;81.90;34.43;;;;;;;;;;5063392;28;20051;-70
2022/03/18 04:08:46;;;;;;;73.67;34.00;;;;;;;;;;5063548;28;20020;-70
2022/03/18 04:11:11;;;;;;;69.03;33.57;;;;;;;;;;5063744;28;20405;-70
2022/03/18 04:13:36;;;;;;;85.80;33.53;;;;;;;;;;5064269;28;20681;-70
2022/03/18 04:16:02;;;;;;;80.57;34.43;;;;;;;;;;5062184;28;20021;-70
2022/03/18 04:18:27;;;;;;;82.57;35.50;;;;;;;;;;5063832;28;20037;-70
2022/03/18 04:20:52;;;;;;;90.00;39.37;;;;;;;;;;5063997;28;20027;-70
2022/03/18 04:23:18;;;;;;;102.67;39.83;;;;;;;;;;5063346;28;20028;-70
2022/03/18 04:25:43;;;;;;;97.37;42.63;;;;;;;;;;5063405;28;20056;-70
2022/03/18 04:28:09;;;;;;;92.10;40.83;;;;;;;;;;5063940;28;20025;-70
2022/03/18 04:30:34;;;;;;;86.20;35.63;;;;;;;;;;5063853;28;20452;-70
2022/03/18 04:32:59;;;;;;;79.50;33.63;;;;;;;;;;5063277;28;20778;-70
2022/03/18 04:35:25;;;;;;;83.30;34.07;;;;;;;;;;5044851;28;20021;-70
2022/03/18 04:37:50;;;;;;;76.17;32.93;;;;;;;;;;5063125;28;20029;-70
2022/03/18 04:40:15;;;;;;;80.80;38.97;;;;;;;;;;5063387;28;20020;-70
2022/03/18 04:42:41;;;;;;;89.43;37.67;;;;;;;;;;5062763;28;20051;-70
2022/03/18 04:45:07;;;;;;;86.37;38.43;;;;;;;;;;5067057;28;20027;-70
2022/03/18 04:47:33;;;;;;;91.63;40.63;;;;;;;;;;5065497;28;20031;-70
2022/03/18 04:49:59;;;;;;;90.50;40.27;;;;;;;;;;5065428;28;20134;-70
2022/03/18 04:52:24;;;;;;;96.77;42.33;;;;;;;;;;5067547;28;20771;-70
2022/03/18 04:54:49;;;;;;;80.97;37.60;;;;;;;;;;5062876;28;20044;-70
2022/03/18 04:57:20;;;;;;;86.03;37.47;;;;;;;;;;5062363;28;20090;-70
2022/03/18 04:59:51;;;;;;;95.72;39.58;;;;;;;;;;5056971;28;20097;-70
2022/03/18 05:02:16;;;;;;;96.50;40.57;;;;;;;;;;5062717;28;20539;-70
2022/03/18 05:04:42;;;;;;;87.27;41.30;;;;;;;;;;5062774;28;20294;-70
2022/03/18 05:07:08;;;;;;;90.63;45.10;;;;;;;;;;5062959;28;20016;-70
2022/03/18 05:09:33;;;;;;;99.63;44.13;;;;;;;;;;5062096;28;20850;-70
2022/03/18 05:11:58;;;;;;;103.50;48.13;;;;;;;;;;5062296;28;20115;-70
2022/03/18 05:14:24;;;;;;;84.20;41.13;;;;;;;;;;5063082;28;20046;-70
2022/03/18 05:16:49;;;;;;;95.17;44.13;;;;;;;;;;5062814;28;20032;-70
2022/03/18 05:19:14;;;;;;;101.87;45.50;;;;;;;;;;5063357;28;20024;-70
2022/03/18 05:21:40;;;;;;;85.33;40.03;;;;;;;;;;5066522;28;20121;-70
2022/03/18 05:24:06;;;;;;;89.70;39.70;;;;;;;;;;5062869;28;20024;-70
2022/03/18 05:26:32;;;;;;;103.47;48.93;;;;;;;;;;5062503;28;20370;-69
2022/03/18 05:28:57;;;;;;;103.27;46.73;;;;;;;;;;5062862;28;20029;-69
2022/03/18 05:31:22;;;;;;;106.73;46.83;;;;;;;;;;5062220;28;20182;-71
2022/03/18 05:33:48;;;;;;;113.27;52.03;;;;;;;;;;5062038;28;20396;-69
2022/03/18 05:36:14;;;;;;;104.07;47.27;;;;;;;;;;5062059;28;20100;-69
2022/03/18 05:38:39;;;;;;;107.27;48.30;;;;;;;;;;5062528;28;20098;-70
2022/03/18 05:41:04;;;;;;;105.90;49.00;;;;;;;;;;5061728;28;20032;-70
2022/03/18 05:43:29;;;;;;;108.00;49.23;;;;;;;;;;5062016;28;20460;-70
2022/03/18 05:45:55;;;;;;;101.67;46.90;;;;;;;;;;5061627;28;20020;-70
2022/03/18 05:48:20;;;;;;;90.60;43.47;;;;;;;;;;5061847;28;20074;-70
2022/03/18 05:50:45;;;;;;;100.30;48.27;;;;;;;;;;5061012;28;20039;-70
2022/03/18 05:53:12;;;;;;;113.53;54.00;;;;;;;;;;5060704;28;20028;-70
2022/03/18 05:58:21;;;;;;;115.57;50.17;;;;;;;;;;5061825;28;20281;-70
2022/03/18 06:00:47;;;;;;;92.23;45.07;;;;;;;;;;5061248;28;20298;-70
2022/03/18 06:03:13;;;;;;;101.17;46.50;;;;;;;;;;5056980;28;20082;-68
2022/03/18 06:05:39;;;;;;;97.40;46.73;;;;;;;;;;5062111;28;20029;-67
2022/03/18 06:13:32;;;;;;;81.37;41.57;;;;;;;;;;5061863;28;20166;-68
2022/03/18 06:15:57;;;;;;;69.80;38.13;;;;;;;;;;5061581;28;20112;-67
2022/03/18 06:18:23;;;;;;;78.07;37.70;;;;;;;;;;5062103;28;20636;-67
2022/03/18 06:20:51;;;;;;;73.60;37.07;;;;;;;;;;5061304;28;20507;-67
2022/03/18 06:23:17;;;;;;;69.93;36.47;;;;;;;;;;5063428;28;20024;-67
2022/03/18 06:25:43;;;;;;;75.67;35.53;;;;;;;;;;5062276;28;20024;-67
2022/03/18 06:28:08;;;;;;;58.17;31.37;;;;;;;;;;5061612;28;20059;-68
2022/03/18 06:30:34;;;;;;;53.83;25.80;;;;;;;;;;5060762;28;20024;-68
2022/03/18 06:32:59;;;;;;;35.07;20.50;;;;;;;;;;5062258;28;20036;-68
2022/03/18 06:35:24;;;;;;;31.80;17.73;;;;;;;;;;5061372;28;20020;-68
2022/03/18 06:37:50;;;;;;;26.57;14.27;;;;;;;;;;5071365;28;20055;-68
2022/03/18 06:40:15;;;;;;;19.73;10.77;;;;;;;;;;5063724;28;20029;-68
2022/03/18 06:42:40;;;;;;;22.13;9.50;;;;;;;;;;5061559;28;20083;-68
2022/03/18 06:45:07;;;;;;;15.20;8.03;;;;;;;;;;5061299;28;20032;-68
2022/03/18 06:47:32;;;;;;;17.80;7.47;;;;;;;;;;5061802;28;20039;-66
2022/03/18 06:49:57;;;;;;;14.37;6.50;;;;;;;;;;5060533;28;20484;-66
2022/03/18 06:52:24;;;;;;;13.10;5.87;;;;;;;;;;5061239;28;20031;-67
2022/03/18 06:54:49;;;;;;;13.10;4.60;;;;;;;;;;5060164;28;20047;-66
2022/03/18 06:57:14;;;;;;;16.47;6.13;;;;;;;;;;5061251;28;20052;-67
2022/03/18 06:59:39;;;;;;;11.03;4.73;;;;;;;;;;5059377;28;20051;-67
2022/03/18 07:02:04;;;;;;;13.10;4.47;;;;;;;;;;5061299;28;20102;-67
2022/03/18 07:04:30;;;;;;;12.50;4.40;;;;;;;;;;5060016;28;20013;-67
2022/03/18 07:06:55;;;;;;;21.43;4.77;;;;;;;;;;5060281;28;20024;-67
2022/03/18 07:09:20;;;;;;;11.40;4.57;;;;;;;;;;5059486;28;20016;-67
2022/03/18 07:11:45;;;;;;;10.50;3.80;;;;;;;;;;5059110;28;20492;-67
2022/03/18 07:14:11;;;;;;;11.67;3.67;;;;;;;;;;5062224;28;20028;-67
2022/03/18 07:19:25;;;;;;;9.53;4.30;;;;;;;;;;5019137;28;20195;-67
2022/03/18 07:21:50;;;;;;;9.60;3.93;;;;;;;;;;5061143;28;20073;-67
2022/03/18 07:24:16;;;;;;;11.83;3.60;;;;;;;;;;5061208;28;20036;-67
2022/03/18 07:26:41;;;;;;;12.40;3.78;;;;;;;;;;5061457;28;20500;-67
2022/03/18 07:29:06;;;;;;;7.95;3.45;;;;;;;;;;5060948;28;20028;-69
2022/03/18 07:31:31;;;;;;;10.93;4.00;;;;;;;;;;5061445;28;20108;-67
2022/03/18 07:33:57;;;;;;;14.10;3.78;;;;;;;;;;5061011;28;20029;-67
2022/03/18 07:36:22;;;;;;;14.18;3.92;;;;;;;;;;5061477;28;20408;-67
2022/03/18 07:38:47;;;;;;;11.85;3.88;;;;;;;;;;5061251;28;20182;-67
2022/03/18 07:41:13;;;;;;;10.68;3.42;;;;;;;;;;5060918;28;20028;-67
2022/03/18 07:43:38;;;;;;;11.50;4.10;;;;;;;;;;5061291;28;20078;-67
2022/03/18 07:46:03;;;;;;;12.95;3.60;;;;;;;;;;5060572;28;20467;-67
2022/03/18 07:48:29;;;;;;;15.95;3.90;;;;;;;;;;5061251;28;20029;-67
2022/03/18 07:50:55;;;;;;;12.35;3.67;;;;;;;;;;5060465;28;20028;-67
2022/03/18 07:53:20;;;;;;;14.95;3.92;;;;;;;;;;5060978;28;20025;-67
2022/03/18 07:55:45;;;;;;;13.32;3.33;;;;;;;;;;5060543;28;20043;-66
2022/03/18 07:58:11;;;;;;;12.20;4.05;;;;;;;;;;5060669;28;20032;-69
2022/03/18 08:00:36;;;;;;;10.07;3.53;;;;;;;;;;5060222;28;20032;-69
2022/03/18 08:03:02;;;;;;;15.80;4.10;;;;;;;;;;5061037;28;20111;-69
2022/03/18 08:05:27;;;;;;;12.25;4.22;;;;;;;;;;5060779;28;20122;-69
2022/03/18 08:07:53;;;;;;;10.55;3.40;;;;;;;;;;5060933;28;20036;-69
2022/03/18 08:10:18;;;;;;;13.88;4.10;;;;;;;;;;5060857;28;20086;-69
2022/03/18 08:12:44;;;;;;;10.90;3.53;;;;;;;;;;5060722;28;20472;-69
2022/03/18 08:15:11;;;;;;;14.70;4.07;;;;;;;;;;5060347;28;20032;-69
2022/03/18 08:17:39;;;;;;;9.82;3.97;;;;;;;;;;5060895;28;20048;-70
2022/03/18 08:20:08;;;;;;;11.90;3.83;;;;;;;;;;5060196;28;20039;-70
2022/03/18 08:22:34;;;;;;;11.85;4.10;;;;;;;;;;5060879;28;20094;-70
2022/03/18 08:25:00;;;;;;;11.30;3.90;;;;;;;;;;5060354;28;20047;-70
2022/03/18 08:27:25;;;;;;;10.02;3.38;;;;;;;;;;5060640;28;20016;-68
2022/03/18 08:29:53;;;;;;;11.38;3.58;;;;;;;;;;5060431;28;20025;-69
2022/03/18 08:32:18;;;;;;;12.57;3.72;;;;;;;;;;5062592;28;20605;-69
2022/03/18 08:34:43;;;;;;;10.07;3.88;;;;;;;;;;5075565;28;20110;-69
2022/03/18 08:37:10;;;;;;;10.82;3.85;;;;;;;;;;5064496;28;20027;-69
2022/03/18 08:39:38;;;;;;;11.55;3.70;;;;;;;;;;5064287;28;20028;-69
2022/03/18 08:42:04;;;;;;;12.95;3.40;;;;;;;;;;5064419;28;20408;-69
2022/03/18 08:44:29;;;;;;;10.05;3.90;;;;;;;;;;5063585;28;20016;-69
2022/03/18 08:46:56;;;;;;;11.63;3.40;;;;;;;;;;5064397;28;20020;-69
2022/03/18 08:49:21;;;;;;;11.45;3.50;;;;;;;;;;5064000;28;20025;-69
2022/03/18 08:51:46;;;;;;;10.50;3.25;;;;;;;;;;5064394;28;20419;-69
2022/03/18 08:54:12;;;;;;;12.88;3.45;;;;;;;;;;5063851;28;20039;-69
2022/03/18 08:56:37;;;;;;;14.82;3.70;;;;;;;;;;5046019;28;20028;-69
2022/03/18 08:59:08;;;;;;;16.05;3.50;;;;;;;;;;5062993;28;20048;-69
2022/03/18 09:01:34;;;;;;;13.38;3.40;;;;;;;;;;5071841;28;20036;-69
2022/03/18 09:03:59;;;;;;;14.60;3.40;;;;;;;;;;5081233;28;20020;-69
2022/03/18 09:06:24;;;;;;;16.25;3.97;;;;;;;;;;5076339;28;20016;-69
2022/03/18 09:08:50;;;;;;;12.88;3.80;;;;;;;;;;5069290;28;20019;-70
2022/03/18 09:11:15;;;;;;;11.90;3.30;;;;;;;;;;5064925;28;20020;-71
2022/03/18 09:13:41;;;;;;;10.77;3.40;;;;;;;;;;5064044;28;20039;-71
2022/03/18 09:16:06;;;;;;;11.93;3.50;;;;;;;;;;5063393;28;20439;-70
2022/03/18 09:18:32;;;;;;;14.80;3.63;;;;;;;;;;5063409;28;20104;-70
2022/03/18 09:20:57;;;;;;;11.80;3.58;;;;;;;;;;5063121;28;20031;-70
2022/03/18 09:23:23;;;;;;;11.10;3.63;;;;;;;;;;5063215;28;20021;-70
2022/03/18 09:25:49;;;;;;;17.30;3.65;;;;;;;;;;5063081;28;20059;-70
2022/03/18 09:28:14;;;;;;;13.35;4.00;;;;;;;;;;5063247;28;20055;-70
2022/03/18 09:30:39;;;;;;;12.15;3.50;;;;;;;;;;5063223;28;20032;-70
2022/03/18 09:33:05;;;;;;;13.60;3.67;;;;;;;;;;5063178;28;20061;-71
2022/03/18 09:35:30;;;;;;;10.93;3.78;;;;;;;;;;5063548;28;20081;-71
2022/03/18 09:37:55;;;;;;;15.43;4.18;;;;;;;;;;5062906;28;20051;-71
2022/03/18 09:40:21;;;;;;;23.25;3.97;;;;;;;;;;5063112;28;20112;-71
2022/03/18 09:42:53;;;;;;;13.05;3.80;;;;;;;;;;5062992;28;20024;-70
2022/03/18 09:45:19;;;;;;;12.88;3.92;;;;;;;;;;5062785;28;20146;-70
2022/03/18 09:47:45;;;;;;;15.73;3.78;;;;;;;;;;5063287;28;20016;-70
2022/03/18 09:50:10;;;;;;;12.90;3.97;;;;;;;;;;5062748;28;20029;-70
2022/03/18 09:52:36;;;;;;;16.55;4.22;;;;;;;;;;5062234;28;20100;-70
2022/03/18 09:55:01;;;;;;;15.77;3.83;;;;;;;;;;5062772;28;20107;-70
2022/03/18 09:57:27;;;;;;;19.08;3.55;;;;;;;;;;5062144;28;20020;-69
2022/03/18 09:59:52;;;;;;;10.63;3.40;;;;;;;;;;5062386;28;20025;-69
2022/03/18 10:02:30;;;;;;;15.55;3.60;;;;;;;;;;5062536;28;20064;-69
2022/03/18 10:04:55;;;;;;;11.90;3.60;;;;;;;;;;5062645;28;20021;-69
2022/03/18 10:07:21;;;;;;;16.67;3.80;;;;;;;;;;5062633;28;20487;-69
2022/03/18 10:09:46;;;;;;;19.13;4.00;;;;;;;;;;5062532;28;20024;-69
2022/03/18 10:12:28;;;;;;;16.77;4.10;;;;;;;;;;5061776;28;20104;-69
2022/03/18 10:15:07;;;;;;;10.48;3.53;;;;;;;;;;5061962;28;20042;-69
2022/03/18 10:17:39;;;;;;;12.77;3.93;;;;;;;;;;5062368;28;20120;-69
2022/03/18 10:20:04;;;;;;;14.98;3.92;;;;;;;;;;5061646;28;20033;-69
2022/03/18 10:22:30;;;;;;;10.33;4.20;;;;;;;;;;5062493;28;20039;-69
2022/03/18 10:24:55;;;;;;;15.83;4.53;;;;;;;;;;5062199;28;20100;-69
2022/03/18 10:27:21;;;;;;;15.03;4.47;;;;;;;;;;5061949;28;20377;-69
2022/03/18 10:29:53;;;;;;;13.53;4.33;;;;;;;;;;5061981;28;20099;-69
2022/03/18 10:32:20;;;;;;;13.93;4.53;;;;;;;;;;5079905;28;20027;-69
2022/03/18 10:37:46;;;;;;;15.00;4.50;;;;;;;;;;5062220;28;20562;-69
2022/03/18 10:40:12;;;;;;;13.82;4.68;;;;;;;;;;5061386;28;20104;-69
2022/03/18 10:42:38;;;;;;;14.17;4.50;;;;;;;;;;5060765;28;20170;-69
2022/03/18 10:45:04;;;;;;;12.90;4.50;;;;;;;;;;5061240;28;20028;-69
2022/03/18 10:47:32;;;;;;;21.70;5.10;;;;;;;;;;5062076;28;20016;-69
2022/03/18 10:50:00;;;;;;;11.43;4.60;;;;;;;;;;5061673;28;20508;-69
2022/03/18 10:52:28;;;;;;;12.60;4.47;;;;;;;;;;5060854;28;20035;-69
2022/03/18 10:54:54;;;;;;;10.23;4.53;;;;;;;;;;5060528;28;20492;-69
2022/03/18 10:57:19;;;;;;;17.73;4.87;;;;;;;;;;5061138;28;20114;-69
2022/03/18 10:59:44;;;;;;;15.70;4.90;;;;;;;;;;5061162;28;20077;-69
2022/03/18 11:02:13;;;;;;;12.30;4.53;;;;;;;;;;5060752;28;20170;-69
2022/03/18 11:04:41;;;;;;;14.67;5.07;;;;;;;;;;5065570;28;20040;-69
2022/03/18 11:12:35;;;;;;;12.63;4.80;;;;;;;;;;5081671;28;20076;-69
2022/03/18 11:15:03;;;;;;;14.80;4.60;;;;;;;;;;5070237;28;20025;-69
2022/03/18 11:17:29;;;;;;;13.30;4.67;;;;;;;;;;5061270;28;20051;-69
2022/03/18 11:19:54;;;;;;;15.03;4.90;;;;;;;;;;5060910;28;20028;-69
2022/03/18 11:22:21;;;;;;;19.03;5.17;;;;;;;;;;5061516;28;20028;-69
2022/03/18 11:24:47;;;;;;;19.50;5.20;;;;;;;;;;5060869;28;20049;-69
2022/03/18 11:27:12;;;;;;;13.47;5.00;;;;;;;;;;5061427;28;20024;-69
2022/03/18 11:29:38;;;;;;;16.60;4.70;;;;;;;;;;5060988;28;20052;-69
2022/03/18 11:32:09;;;;;;;12.10;4.83;;;;;;;;;;5061115;28;20035;-69
2022/03/18 11:34:43;;;;;;;13.75;5.00;;;;;;;;;;5058175;28;20604;-69
2022/03/18 11:37:11;;;;;;;12.03;4.83;;;;;;;;;;5059578;28;20733;-69
2022/03/18 11:39:38;;;;;;;14.00;4.67;;;;;;;;;;5059112;28;20024;-69
2022/03/18 11:42:10;;;;;;;12.77;4.73;;;;;;;;;;5059711;28;20100;-69
2022/03/18 11:44:41;;;;;;;11.23;4.23;;;;;;;;;;5059419;28;20346;-69
2022/03/18 11:47:28;;;;;;;15.50;5.00;;;;;;;;;;5059119;28;20036;-71
2022/03/18 11:49:54;;;;;;;13.30;4.87;;;;;;;;;;5056986;28;20285;-71
2022/03/18 11:52:19;;;;;;;14.27;4.63;;;;;;;;;;5060947;28;20036;-71
2022/03/18 11:54:55;;;;;;;17.30;4.97;;;;;;;;;;5060766;28;20144;-70
2022/03/18 11:57:49;;;;;;;13.47;4.60;;;;;;;;;;5059756;28;20024;-69
2022/03/18 12:00:33;;;;;;;13.70;4.70;;;;;;;;;;4997691;28;20042;-69
2022/03/18 12:03:02;;;;;;;13.73;4.70;;;;;;;;;;4986366;28;20109;-70
2022/03/18 12:05:30;;;;;;;11.50;4.93;;;;;;;;;;5002459;28;20029;-69
2022/03/18 12:07:57;;;;;;;11.37;4.47;;;;;;;;;;4994854;28;20018;-69
2022/03/18 12:10:33;;;;;;;19.93;4.80;;;;;;;;;;4999930;28;20030;-71
2022/03/18 12:13:02;;;;;;;13.50;3.90;;;;;;;;;;5001946;28;20018;-69
2022/03/18 12:15:27;;;;;;;10.87;3.20;;;;;;;;;;5001610;28;20105;-69
2022/03/18 12:17:53;;;;;;;11.77;3.87;;;;;;;;;;5001755;28;20113;-69
2022/03/18 12:20:20;;;;;;;9.27;3.77;;;;;;;;;;5004174;28;20026;-69
2022/03/18 12:22:45;;;;;;;13.83;4.37;;;;;;;;;;5001579;28;20030;-69
2022/03/18 12:25:11;;;;;;;16.30;3.97;;;;;;;;;;4997649;28;20741;-69
2022/03/18 12:27:38;;;;;;;13.10;4.00;;;;;;;;;;5000850;28;20018;-69
2022/03/18 12:30:04;;;;;;;11.77;4.00;;;;;;;;;;5001439;28;20069;-69
2022/03/18 12:32:29;;;;;;;13.20;4.20;;;;;;;;;;5001602;28;20057;-69
2022/03/18 12:34:55;;;;;;;14.43;4.10;;;;;;;;;;5001239;28;20080;-70
2022/03/18 12:37:33;;;;;;;13.57;3.88;;;;;;;;;;5041582;28;20211;-70
2022/03/18 12:40:08;;;;;;;13.18;3.63;;;;;;;;;;5071878;28;20004;-71
2022/03/18 12:42:50;;;;;;;8.93;3.50;;;;;;;;;;5064660;28;20020;-71
2022/03/18 12:45:34;;;;;;;16.88;3.60;;;;;;;;;;5062093;28;20012;-72
2022/03/18 12:48:04;;;;;;;10.15;3.42;;;;;;;;;;5063992;28;20085;-72
2022/03/18 12:50:31;;;;;;;9.88;3.20;;;;;;;;;;5063757;28;20681;-72
2022/03/18 12:52:57;;;;;;;14.48;3.80;;;;;;;;;;5064030;28;20472;-72
2022/03/18 12:55:23;;;;;;;10.43;3.78;;;;;;;;;;5065906;28;20012;-72
2022/03/18 12:57:49;;;;;;;11.93;3.70;;;;;;;;;;5069901;28;20048;-72
2022/03/18 13:00:17;;;;;;;12.73;4.53;;;;;;;;;;5062294;28;20052;-72
2022/03/18 13:02:43;;;;;;;11.77;4.22;;;;;;;;;;5063127;28;20409;-72
2022/03/18 13:05:10;;;;;;;7.47;3.67;;;;;;;;;;5059201;28;20032;-71
2022/03/18 13:07:36;;;;;;;14.25;4.00;;;;;;;;;;5058650;28;20025;-72
2022/03/18 13:10:02;;;;;;;14.60;4.15;;;;;;;;;;5060848;28;20012;-71
2022/03/18 13:12:29;;;;;;;10.90;3.90;;;;;;;;;;5062455;28;20024;-71
2022/03/18 13:14:56;;;;;;;10.75;4.25;;;;;;;;;;5067476;28;20471;-71
2022/03/18 13:17:30;;;;;;;10.65;4.10;;;;;;;;;;5055499;28;20025;-72
2022/03/18 13:19:56;;;;;;;12.60;3.90;;;;;;;;;;5062135;28;20036;-72
2022/03/18 13:22:22;;;;;;;11.27;4.00;;;;;;;;;;5059895;28;20127;-72
2022/03/18 13:24:51;;;;;;;10.15;3.90;;;;;;;;;;5060594;28;20104;-72
2022/03/18 13:27:17;;;;;;;9.63;3.78;;;;;;;;;;5077948;28;20016;-72
2022/03/18 13:35:11;;;;;;;10.85;4.07;;;;;;;;;;5061592;28;20036;-70
2022/03/18 13:37:37;;;;;;;9.98;3.95;;;;;;;;;;5068474;28;20107;-73
2022/03/18 13:40:13;;;;;;;11.05;3.80;;;;;;;;;;5060614;28;20553;-73
2022/03/18 13:42:41;;;;;;;11.02;3.80;;;;;;;;;;5063683;28;20024;-73
2022/03/18 13:45:07;;;;;;;11.10;3.85;;;;;;;;;;5061656;28;20077;-73
2022/03/18 13:47:48;;;;;;;14.30;4.97;;;;;;;;;;5062089;28;20405;-73
2022/03/18 13:50:14;;;;;;;12.27;4.25;;;;;;;;;;5059781;28;20016;-73
2022/03/18 13:52:39;;;;;;;12.25;4.07;;;;;;;;;;5062017;28;20570;-74
2022/03/18 13:55:05;;;;;;;12.13;4.72;;;;;;;;;;5062537;28;20087;-73
2022/03/18 13:57:44;;;;;;;11.73;4.15;;;;;;;;;;5062630;28;20018;-70
2022/03/18 14:00:10;;;;;;;10.80;4.32;;;;;;;;;;5062120;28;20036;-70
2022/03/18 14:02:35;;;;;;;10.10;4.28;;;;;;;;;;5061697;28;20040;-70
2022/03/18 14:05:00;;;;;;;11.18;4.57;;;;;;;;;;5062555;28;20042;-70
2022/03/18 14:07:42;;;;;;;14.95;4.85;;;;;;;;;;5062365;28;20012;-70
2022/03/18 14:10:08;;;;;;;16.90;4.90;;;;;;;;;;5062127;28;20027;-69
2022/03/18 14:12:33;;;;;;;11.30;3.90;;;;;;;;;;5062603;28;20029;-69
2022/03/18 14:15:18;;;;;;;9.77;3.40;;;;;;;;;;5062209;28;20040;-73
2022/03/18 14:18:00;;;;;;;10.10;3.35;;;;;;;;;;5062454;28;20055;-70
2022/03/18 14:20:28;;;;;;;13.13;3.95;;;;;;;;;;5061881;28;20413;-71
2022/03/18 14:22:55;;;;;;;10.15;3.67;;;;;;;;;;5062534;28;20036;-73
2022/03/18 14:25:21;;;;;;;12.57;4.00;;;;;;;;;;5062375;28;20468;-73
2022/03/18 14:27:47;;;;;;;9.60;3.92;;;;;;;;;;5062320;28;20040;-72
2022/03/18 14:30:14;;;;;;;13.27;4.00;;;;;;;;;;5061514;28;20154;-73
2022/03/18 14:32:43;;;;;;;12.90;4.45;;;;;;;;;;5073473;28;20095;-70
2022/03/18 14:35:08;;;;;;;13.65;4.32;;;;;;;;;;5070038;28;20571;-73
2022/03/18 14:37:35;;;;;;;10.65;4.00;;;;;;;;;;5062055;28;20039;-73
2022/03/18 14:40:01;;;;;;;11.73;4.68;;;;;;;;;;5062147;28;20024;-73
2022/03/18 14:42:26;;;;;;;11.63;4.22;;;;;;;;;;5062027;28;20789;-72
2022/03/18 14:44:52;;;;;;;12.45;4.78;;;;;;;;;;5061783;28;20025;-72
2022/03/18 14:47:17;;;;;;;10.80;4.38;;;;;;;;;;5061937;28;20017;-72
2022/03/18 14:49:42;;;;;;;16.40;4.90;;;;;;;;;;5061786;28;20036;-72
2022/03/18 14:52:08;;;;;;;14.13;5.20;;;;;;;;;;5062001;28;20674;-72
2022/03/18 14:57:19;;;;;;;15.05;5.03;;;;;;;;;;5061515;28;20530;-72
2022/03/18 14:59:45;;;;;;;11.35;4.53;;;;;;;;;;5061321;28;20024;-72